createdAt,value
2022-11-16T00:00:18.423Z,0.8
2022-11-16T00:01:18.061Z,1.04
2022-11-16T00:02:18.701Z,0
2022-11-16T00:03:18.729Z,0.8
2022-11-16T00:04:18.913Z,0
2022-11-16T00:05:19.747Z,0
2022-11-16T00:06:19.170Z,1.04
2022-11-16T00:07:19.350Z,0.8
2022-11-16T00:08:19.423Z,1.04
2022-11-16T00:09:19.598Z,1.2
2022-11-16T00:10:19.697Z,1.04
2022-11-16T00:11:19.896Z,1.44
2022-11-16T00:12:20.045Z,1.44
2022-11-16T00:13:20.097Z,1.6
2022-11-16T00:14:20.251Z,0.8
2022-11-16T00:15:20.599Z,2.24
2022-11-16T00:16:20.175Z,0
2022-11-16T00:17:20.281Z,1.6
2022-11-16T00:18:20.788Z,0.8
2022-11-16T00:19:21.164Z,1.04
2022-11-16T00:20:21.114Z,1.44
2022-11-16T00:21:21.311Z,1.44
2022-11-16T00:22:21.463Z,1.04
2022-11-16T00:23:21.674Z,1.04
2022-11-16T00:24:21.725Z,1.84
2022-11-16T00:25:21.939Z,1.84
2022-11-16T00:26:21.601Z,1.04
2022-11-16T00:27:22.170Z,1.04
2022-11-16T00:28:22.272Z,1.84
2022-11-16T00:29:22.454Z,0
2022-11-16T00:30:22.824Z,0.64
2022-11-16T00:31:22.297Z,1.2
2022-11-16T00:32:22.791Z,0
2022-11-16T00:33:22.917Z,1.44
2022-11-16T00:34:23.028Z,1.2
2022-11-16T00:35:23.176Z,1.44
2022-11-16T00:36:23.333Z,0.8
2022-11-16T00:37:23.493Z,2.4
2022-11-16T00:38:23.645Z,1.84
2022-11-16T00:39:24.022Z,0.8
2022-11-16T00:40:24.042Z,1.44
2022-11-16T00:41:24.143Z,2.8
2022-11-16T00:42:24.298Z,2
2022-11-16T00:43:24.406Z,1.04
2022-11-16T00:44:24.499Z,1.6
2022-11-16T00:45:24.954Z,1.2
2022-11-16T00:46:24.383Z,1.04
2022-11-16T00:47:25.019Z,0.8
2022-11-16T00:48:25.099Z,1.44
2022-11-16T00:49:25.437Z,1.84
2022-11-16T00:50:25.355Z,1.2
2022-11-16T00:51:25.491Z,1.84
2022-11-16T00:52:25.664Z,1.2
2022-11-16T00:53:25.774Z,1.2
2022-11-16T00:54:25.963Z,2.4
2022-11-16T00:55:26.168Z,2.64
2022-11-16T00:56:26.615Z,1.04
2022-11-16T00:57:26.529Z,1.44
2022-11-16T00:58:26.620Z,2
2022-11-16T00:59:26.774Z,1.2
2022-11-16T01:00:27.144Z,0.8
2022-11-16T01:01:26.788Z,1.6
2022-11-16T01:02:27.226Z,1.44
2022-11-16T01:03:27.317Z,2.64
2022-11-16T01:04:27.429Z,1.44
2022-11-16T01:05:27.531Z,1.04
2022-11-16T01:06:27.663Z,1.84
2022-11-16T01:07:27.886Z,1.44
2022-11-16T01:08:27.957Z,1.2
2022-11-16T01:09:28.148Z,1.44
2022-11-16T01:10:28.296Z,2
2022-11-16T01:11:28.391Z,1.44
2022-11-16T01:12:28.597Z,1.04
2022-11-16T01:13:28.789Z,1.2
2022-11-16T01:14:28.891Z,2
2022-11-16T01:15:29.263Z,1.44
2022-11-16T01:16:28.774Z,2
2022-11-16T01:17:29.346Z,2
2022-11-16T01:18:29.449Z,2.24
2022-11-16T01:19:29.809Z,1.44
2022-11-16T01:20:29.718Z,2
2022-11-16T01:21:30.389Z,2.8
2022-11-16T01:22:29.991Z,1.44
2022-11-16T01:23:30.155Z,1.6
2022-11-16T01:24:30.257Z,2
2022-11-16T01:25:30.376Z,2
2022-11-16T01:26:30.506Z,1.6
2022-11-16T01:27:30.674Z,2.64
2022-11-16T01:28:31.298Z,0
2022-11-16T01:29:31.071Z,1.84
2022-11-16T01:30:31.433Z,3.2
2022-11-16T01:31:30.853Z,3.84
2022-11-16T01:32:31.376Z,1.6
2022-11-16T01:33:31.522Z,2.24
2022-11-16T01:34:31.629Z,2.24
2022-11-16T01:35:31.827Z,2.4
2022-11-16T01:36:31.975Z,1.84
2022-11-16T01:37:32.106Z,2.8
2022-11-16T01:38:32.559Z,2.64
2022-11-16T01:39:32.463Z,3.84
2022-11-16T01:40:32.501Z,2.64
2022-11-16T01:41:32.790Z,4.16
2022-11-16T01:42:32.895Z,2.4
2022-11-16T01:43:32.548Z,2.24
2022-11-16T01:44:33.247Z,4.4
2022-11-16T01:45:32.730Z,2.64
2022-11-16T01:46:33.282Z,2.64
2022-11-16T01:47:33.413Z,1.6
2022-11-16T01:48:34.099Z,1.2
2022-11-16T01:49:33.762Z,1.84
2022-11-16T01:50:33.854Z,0.8
2022-11-16T01:51:33.955Z,1.04
2022-11-16T01:52:34.131Z,1.44
2022-11-16T01:53:34.292Z,1.04
2022-11-16T01:54:34.406Z,1.6
2022-11-16T01:55:34.512Z,0
2022-11-16T01:56:34.660Z,1.04
2022-11-16T01:57:34.766Z,1.44
2022-11-16T01:58:35.253Z,3.6
2022-11-16T01:59:35.270Z,0.8
2022-11-16T02:00:34.844Z,2.24
2022-11-16T02:01:35.428Z,1.04
2022-11-16T02:02:35.042Z,1.2
2022-11-16T02:03:35.211Z,1.2
2022-11-16T02:04:35.778Z,2.4
2022-11-16T02:05:35.975Z,3.44
2022-11-16T02:06:36.074Z,1.84
2022-11-16T02:07:36.219Z,1.04
2022-11-16T02:08:36.537Z,4.4
2022-11-16T02:09:36.523Z,2
2022-11-16T02:10:36.683Z,2
2022-11-16T02:11:36.781Z,2.24
2022-11-16T02:12:36.890Z,1.04
2022-11-16T02:13:36.946Z,1.84
2022-11-16T02:14:37.349Z,2.24
2022-11-16T02:15:36.916Z,1.6
2022-11-16T02:16:37.442Z,2
2022-11-16T02:17:37.545Z,0.8
2022-11-16T02:18:37.683Z,1.84
2022-11-16T02:19:38.005Z,2
2022-11-16T02:20:37.952Z,1.44
2022-11-16T02:21:38.159Z,1.44
2022-11-16T02:22:38.306Z,1.44
2022-11-16T02:23:38.452Z,0
2022-11-16T02:24:38.603Z,0.8
2022-11-16T02:25:38.708Z,1.44
2022-11-16T02:26:38.915Z,1.84
2022-11-16T02:27:39.046Z,2.24
2022-11-16T02:28:39.144Z,1.6
2022-11-16T02:29:39.510Z,0.8
2022-11-16T02:30:39.051Z,1.04
2022-11-16T02:31:39.148Z,1.6
2022-11-16T02:32:39.245Z,1.44
2022-11-16T02:33:39.393Z,0.8
2022-11-16T02:34:39.505Z,1.44
2022-11-16T02:35:39.648Z,1.44
2022-11-16T02:36:39.762Z,1.04
2022-11-16T02:37:39.907Z,0.8
2022-11-16T02:38:40.056Z,2.8
2022-11-16T02:39:40.169Z,3.04
2022-11-16T02:40:40.309Z,3.2
2022-11-16T02:41:40.454Z,0
2022-11-16T02:42:40.558Z,0.8
2022-11-16T02:43:41.160Z,2
2022-11-16T02:44:41.524Z,2
2022-11-16T02:45:41.014Z,2.24
2022-11-16T02:46:41.121Z,2
2022-11-16T02:47:41.619Z,1.84
2022-11-16T02:48:41.745Z,1.6
2022-11-16T02:49:41.895Z,2.4
2022-11-16T02:50:42.047Z,2.8
2022-11-16T02:51:42.146Z,1.2
2022-11-16T02:52:42.348Z,1.84
2022-11-16T02:53:42.700Z,2.8
2022-11-16T02:54:42.652Z,3.84
2022-11-16T02:55:42.805Z,2.24
2022-11-16T02:56:42.960Z,1.44
2022-11-16T02:57:43.117Z,4.16
2022-11-16T02:58:43.276Z,1.04
2022-11-16T02:59:43.617Z,1.84
2022-11-16T03:00:43.143Z,2
2022-11-16T03:01:43.247Z,3.2
2022-11-16T03:02:43.817Z,0
2022-11-16T03:03:44.019Z,2.8
2022-11-16T03:04:44.071Z,3.04
2022-11-16T03:05:44.227Z,1.44
2022-11-16T03:06:44.337Z,1.44
2022-11-16T03:07:44.529Z,2.64
2022-11-16T03:08:44.943Z,1.2
2022-11-16T03:09:44.828Z,2.24
2022-11-16T03:10:44.981Z,2.8
2022-11-16T03:11:45.087Z,1.6
2022-11-16T03:12:45.339Z,2
2022-11-16T03:13:45.736Z,1.44
2022-11-16T03:14:45.572Z,2.64
2022-11-16T03:15:45.798Z,2.8
2022-11-16T03:16:45.917Z,2.24
2022-11-16T03:17:46.092Z,2.64
2022-11-16T03:18:46.241Z,1.84
2022-11-16T03:19:46.331Z,3.44
2022-11-16T03:20:46.424Z,1.84
2022-11-16T03:21:46.558Z,2
2022-11-16T03:22:46.715Z,2.4
2022-11-16T03:23:47.003Z,4.4
2022-11-16T03:24:46.948Z,1.6
2022-11-16T03:25:47.086Z,2.24
2022-11-16T03:26:46.891Z,1.44
2022-11-16T03:27:47.603Z,2.8
2022-11-16T03:28:47.511Z,2.4
2022-11-16T03:29:47.960Z,2.24
2022-11-16T03:30:47.447Z,2
2022-11-16T03:31:48.020Z,2
2022-11-16T03:32:48.162Z,2
2022-11-16T03:33:47.941Z,2
2022-11-16T03:34:48.469Z,1.6
2022-11-16T03:35:48.620Z,1.84
2022-11-16T03:36:48.746Z,2.64
2022-11-16T03:37:48.856Z,2.24
2022-11-16T03:38:48.975Z,1.44
2022-11-16T03:39:49.110Z,3.04
2022-11-16T03:40:49.241Z,4.64
2022-11-16T03:41:49.392Z,2.24
2022-11-16T03:42:49.564Z,1.2
2022-11-16T03:43:49.730Z,1.04
2022-11-16T03:44:50.116Z,1.84
2022-11-16T03:45:49.658Z,2.24
2022-11-16T03:46:50.202Z,3.2
2022-11-16T03:47:50.401Z,1.84
2022-11-16T03:48:50.557Z,1.6
2022-11-16T03:49:50.691Z,2.24
2022-11-16T03:50:50.796Z,1.84
2022-11-16T03:51:50.992Z,1.44
2022-11-16T03:52:51.110Z,2.4
2022-11-16T03:53:51.225Z,5.6
2022-11-16T03:54:51.400Z,1.6
2022-11-16T03:55:51.455Z,2.4
2022-11-16T03:56:51.624Z,1.44
2022-11-16T03:57:51.756Z,1.84
2022-11-16T03:58:51.907Z,1.2
2022-11-16T03:59:52.260Z,1.6
2022-11-16T04:00:52.300Z,1.84
2022-11-16T04:01:52.365Z,1.84
2022-11-16T04:02:52.534Z,2.24
2022-11-16T04:03:52.715Z,1.6
2022-11-16T04:04:53.128Z,1.44
2022-11-16T04:05:52.980Z,1.6
2022-11-16T04:06:53.179Z,1.04
2022-11-16T04:07:53.278Z,2.8
2022-11-16T04:08:53.404Z,2.24
2022-11-16T04:09:53.550Z,1.6
2022-11-16T04:10:53.661Z,3.6
2022-11-16T04:11:53.810Z,2
2022-11-16T04:12:53.967Z,2.24
2022-11-16T04:13:54.127Z,1.84
2022-11-16T04:14:54.483Z,2.64
2022-11-16T04:15:54.101Z,2.64
2022-11-16T04:16:54.566Z,0
2022-11-16T04:17:54.738Z,1.84
2022-11-16T04:18:54.898Z,1.84
2022-11-16T04:19:58.049Z,3.44
2022-11-16T04:20:55.283Z,1.04
2022-11-16T04:21:55.407Z,1.04
2022-11-16T04:22:55.524Z,1.04
2022-11-16T04:23:55.700Z,1.04
2022-11-16T04:24:55.899Z,2.64
2022-11-16T04:25:55.949Z,1.04
2022-11-16T04:26:56.099Z,0.8
2022-11-16T04:27:56.251Z,0
2022-11-16T04:28:56.419Z,0
2022-11-16T04:29:56.754Z,0
2022-11-16T04:30:56.333Z,0
2022-11-16T04:31:56.809Z,1.04
2022-11-16T04:32:56.916Z,0
2022-11-16T04:33:57.120Z,0
2022-11-16T04:34:57.314Z,0
2022-11-16T04:35:57.396Z,0.8
2022-11-16T04:36:57.573Z,0
2022-11-16T04:37:57.731Z,1.44
2022-11-16T04:38:57.879Z,0
2022-11-16T04:39:58.023Z,0
2022-11-16T04:40:58.125Z,0
2022-11-16T04:41:58.231Z,0
2022-11-16T04:42:57.963Z,0
2022-11-16T04:43:58.462Z,0
2022-11-16T04:44:58.827Z,0
2022-11-16T04:45:58.407Z,0
2022-11-16T04:46:58.931Z,0
2022-11-16T04:47:59.137Z,0
2022-11-16T04:48:59.146Z,1.04
2022-11-16T04:49:59.303Z,0
2022-11-16T04:50:59.493Z,0
2022-11-16T04:51:59.629Z,0
2022-11-16T04:52:59.807Z,1.04
2022-11-16T04:54:00.043Z,0.8
2022-11-16T04:55:00.243Z,0
2022-11-16T04:56:00.957Z,1.6
2022-11-16T04:57:00.450Z,0
2022-11-16T04:58:00.701Z,0
2022-11-16T04:59:00.913Z,0
2022-11-16T05:00:01.357Z,0
2022-11-16T05:01:00.704Z,0
2022-11-16T05:02:00.847Z,0
2022-11-16T05:03:01.987Z,0
2022-11-16T05:04:01.455Z,0
2022-11-16T05:05:01.832Z,0.8
2022-11-16T05:06:01.728Z,0.64
2022-11-16T05:07:02.017Z,0.8
2022-11-16T05:08:02.074Z,1.44
2022-11-16T05:09:02.267Z,1.04
2022-11-16T05:10:02.441Z,0.8
2022-11-16T05:11:02.555Z,0.8
2022-11-16T05:12:02.694Z,0
2022-11-16T05:13:02.829Z,0
2022-11-16T05:14:02.975Z,1.44
2022-11-16T05:15:03.284Z,0
2022-11-16T05:16:02.761Z,0
2022-11-16T05:17:03.297Z,0
2022-11-16T05:18:03.438Z,0
2022-11-16T05:19:03.586Z,1.44
2022-11-16T05:20:03.710Z,0.8
2022-11-16T05:21:03.891Z,1.84
2022-11-16T05:22:03.655Z,1.04
2022-11-16T05:23:03.761Z,2
2022-11-16T05:24:03.864Z,1.04
2022-11-16T05:25:04.043Z,0
2022-11-16T05:26:04.159Z,1.44
2022-11-16T05:27:04.314Z,1.04
2022-11-16T05:28:04.507Z,0.64
2022-11-16T05:29:04.586Z,0
2022-11-16T05:30:04.755Z,1.04
2022-11-16T05:31:04.873Z,2
2022-11-16T05:32:05.031Z,1.44
2022-11-16T05:33:05.171Z,0
2022-11-16T05:34:05.295Z,0
2022-11-16T05:35:05.922Z,0
2022-11-16T05:36:05.964Z,1.04
2022-11-16T05:37:06.115Z,1.44
2022-11-16T05:38:06.273Z,1.2
2022-11-16T05:39:06.076Z,1.04
2022-11-16T05:40:06.786Z,0.8
2022-11-16T05:41:06.631Z,0.8
2022-11-16T05:42:06.783Z,1.04
2022-11-16T05:43:06.928Z,1.2
2022-11-16T05:44:07.091Z,1.44
2022-11-16T05:45:07.565Z,1.6
2022-11-16T05:46:07.047Z,1.44
2022-11-16T05:47:07.584Z,1.6
2022-11-16T05:48:07.770Z,0.8
2022-11-16T05:49:07.845Z,1.04
2022-11-16T05:50:07.983Z,2
2022-11-16T05:51:08.138Z,1.6
2022-11-16T05:52:08.606Z,0.8
2022-11-16T05:53:08.796Z,1.6
2022-11-16T05:54:08.897Z,2.4
2022-11-16T05:55:08.790Z,2.4
2022-11-16T05:56:09.041Z,2.24
2022-11-16T05:57:09.047Z,1.04
2022-11-16T05:58:09.148Z,2.24
2022-11-16T05:59:12.455Z,1.44
2022-11-16T06:00:09.760Z,1.44
2022-11-16T06:01:09.234Z,1.04
2022-11-16T06:02:09.342Z,0.8
2022-11-16T06:03:10.019Z,1.84
2022-11-16T06:04:10.107Z,2
2022-11-16T06:05:10.176Z,1.44
2022-11-16T06:06:09.824Z,1.6
2022-11-16T06:07:10.006Z,2.64
2022-11-16T06:08:10.118Z,3.2
2022-11-16T06:09:10.273Z,4
2022-11-16T06:10:10.843Z,1.6
2022-11-16T06:11:11.019Z,1.04
2022-11-16T06:12:11.000Z,2.4
2022-11-16T06:13:11.159Z,1.6
2022-11-16T06:14:11.316Z,0
2022-11-16T06:15:11.037Z,1.6
2022-11-16T06:20:15.741Z,1.04
2022-11-16T06:22:12.443Z,2.24
2022-11-16T06:23:12.111Z,1.04
2022-11-16T06:24:12.261Z,2.24
2022-11-16T06:25:12.974Z,1.04
2022-11-16T06:26:12.896Z,0.8
2022-11-16T06:27:13.300Z,2.8
2022-11-16T06:28:13.212Z,1.84
2022-11-16T06:29:13.357Z,0.8
2022-11-16T06:30:13.715Z,1.6
2022-11-16T06:31:13.279Z,3.04
2022-11-16T06:32:13.383Z,1.44
2022-11-16T06:33:13.903Z,0
2022-11-16T06:34:14.005Z,2.24
2022-11-16T06:35:14.224Z,1.04
2022-11-16T06:36:14.398Z,1.84
2022-11-16T06:37:14.561Z,1.04
2022-11-16T06:38:14.742Z,0
2022-11-16T06:39:14.817Z,1.04
2022-11-16T06:40:14.954Z,0
2022-11-16T06:41:15.071Z,0
2022-11-16T06:42:15.225Z,1.2
2022-11-16T06:43:15.367Z,0
2022-11-16T06:44:15.504Z,0
2022-11-16T06:45:15.829Z,0
2022-11-16T06:46:15.405Z,0.8
2022-11-16T06:47:15.893Z,1.04
2022-11-16T06:48:15.610Z,0
2022-11-16T06:49:15.749Z,0
2022-11-16T06:50:15.924Z,1.04
2022-11-16T06:51:16.047Z,0.8
2022-11-16T06:52:16.227Z,1.04
2022-11-16T06:53:16.359Z,1.44
2022-11-16T06:54:16.502Z,1.04
2022-11-16T06:55:16.624Z,0
2022-11-16T06:56:17.243Z,0
2022-11-16T06:57:17.347Z,0
2022-11-16T06:58:17.495Z,0
2022-11-16T06:59:17.579Z,0
2022-11-16T07:00:18.227Z,0
2022-11-16T07:01:17.611Z,0
2022-11-16T07:02:18.602Z,0
2022-11-16T07:03:18.143Z,0
2022-11-16T07:04:18.255Z,0
2022-11-16T07:05:18.367Z,0
2022-11-16T07:06:18.462Z,0
2022-11-16T07:07:18.698Z,0
2022-11-16T07:08:18.792Z,0
2022-11-16T07:09:18.964Z,0
2022-11-16T07:10:19.124Z,0
2022-11-16T07:11:19.276Z,0
2022-11-16T07:12:19.504Z,0
2022-11-16T07:13:19.623Z,0
2022-11-16T07:14:19.772Z,0
2022-11-16T07:15:20.092Z,0
2022-11-16T07:16:19.651Z,0
2022-11-16T07:17:20.174Z,0
2022-11-16T07:18:20.288Z,0
2022-11-16T07:19:20.407Z,1.44
2022-11-16T07:20:20.568Z,0
2022-11-16T07:21:20.688Z,1.04
2022-11-16T07:22:20.886Z,0
2022-11-16T07:23:21.021Z,0
2022-11-16T07:24:21.172Z,1.04
2022-11-16T07:25:21.336Z,1.04
2022-11-16T07:26:21.405Z,0
2022-11-16T07:27:21.657Z,1.6
2022-11-16T07:28:21.805Z,0.8
2022-11-16T07:29:21.573Z,0
2022-11-16T07:30:22.347Z,0
2022-11-16T07:31:21.827Z,0.8
2022-11-16T07:32:22.368Z,1.2
2022-11-16T07:33:22.546Z,0
2022-11-16T07:34:22.641Z,1.04
2022-11-16T07:35:22.817Z,1.04
2022-11-16T07:36:22.913Z,1.04
2022-11-16T07:37:23.060Z,0
2022-11-16T07:38:23.207Z,1.04
2022-11-16T07:39:23.320Z,0
2022-11-16T07:40:23.460Z,0
2022-11-16T07:41:23.579Z,0
2022-11-16T07:42:23.751Z,1.04
2022-11-16T07:43:23.934Z,0.8
2022-11-16T07:44:24.123Z,0
2022-11-16T07:45:24.555Z,0
2022-11-16T07:46:47.368Z,0
2022-11-16T07:47:24.525Z,2
2022-11-16T07:48:24.679Z,0
2022-11-16T07:49:24.775Z,0
2022-11-16T07:50:24.887Z,0
2022-11-16T07:51:25.060Z,0
2022-11-16T07:52:25.227Z,0
2022-11-16T07:53:25.387Z,1.04
2022-11-16T07:54:25.533Z,0
2022-11-16T07:55:25.686Z,0
2022-11-16T07:56:25.771Z,0
2022-11-16T07:57:25.890Z,0
2022-11-16T07:58:26.040Z,0
2022-11-16T07:59:26.225Z,0
2022-11-16T08:00:26.608Z,0
2022-11-16T08:01:26.172Z,1.04
2022-11-16T08:02:26.240Z,2
2022-11-16T08:03:26.905Z,0
2022-11-16T08:04:27.059Z,0
2022-11-16T08:05:26.757Z,0
2022-11-16T08:06:27.465Z,0
2022-11-16T08:07:27.378Z,0
2022-11-16T08:08:27.513Z,0
2022-11-16T08:09:27.667Z,0
2022-11-16T08:10:27.855Z,0
2022-11-16T08:11:27.962Z,0
2022-11-16T08:12:28.076Z,0
2022-11-16T08:13:28.216Z,0
2022-11-16T08:14:28.307Z,0
2022-11-16T08:15:28.585Z,0
2022-11-16T08:16:28.189Z,0
2022-11-16T08:17:28.301Z,0
2022-11-16T08:18:28.445Z,0
2022-11-16T08:19:28.545Z,0
2022-11-16T08:20:28.853Z,0
2022-11-16T08:21:28.859Z,0
2022-11-16T08:22:29.013Z,0
2022-11-16T08:23:29.161Z,0
2022-11-16T08:24:29.306Z,0
2022-11-16T08:25:29.461Z,0
2022-11-16T08:26:29.626Z,1.04
2022-11-16T08:27:30.135Z,1.04
2022-11-16T08:28:30.507Z,1.6
2022-11-16T08:29:30.412Z,0
2022-11-16T08:30:30.724Z,0
2022-11-16T08:31:30.371Z,1.2
2022-11-16T08:32:30.948Z,0
2022-11-16T08:33:30.997Z,1.2
2022-11-16T08:34:31.180Z,0
2022-11-16T08:35:31.260Z,1.44
2022-11-16T08:36:31.556Z,0.8
2022-11-16T08:37:31.211Z,0
2022-11-16T08:38:31.945Z,2.4
2022-11-16T08:39:31.857Z,0
2022-11-16T08:40:32.161Z,0
2022-11-16T08:41:32.107Z,0.8
2022-11-16T08:42:32.295Z,0
2022-11-16T08:43:32.562Z,0
2022-11-16T08:44:32.866Z,1.44
2022-11-16T08:45:32.328Z,1.04
2022-11-16T08:46:32.803Z,1.04
2022-11-16T08:47:32.968Z,1.44
2022-11-16T08:48:33.353Z,1.6
2022-11-16T08:49:33.272Z,1.2
2022-11-16T08:50:39.826Z,1.04
2022-11-16T08:51:33.581Z,1.04
2022-11-16T08:52:33.750Z,0
2022-11-16T08:53:33.932Z,0
2022-11-16T08:54:34.034Z,1.04
2022-11-16T08:55:34.283Z,1.04
2022-11-16T08:56:34.283Z,0.64
2022-11-16T08:57:34.433Z,0
2022-11-16T08:58:34.933Z,0
2022-11-16T08:59:34.887Z,1.04
2022-11-16T09:00:34.417Z,1.04
2022-11-16T09:01:35.023Z,2
2022-11-16T09:02:35.070Z,1.44
2022-11-16T09:03:35.243Z,2
2022-11-16T09:04:37.133Z,1.84
2022-11-16T09:05:35.546Z,1.2
2022-11-16T09:06:35.604Z,0.8
2022-11-16T09:07:35.880Z,1.04
2022-11-16T09:08:36.089Z,1.2
2022-11-16T09:09:36.160Z,1.6
2022-11-16T09:10:35.886Z,2.4
2022-11-16T09:11:36.641Z,1.2
2022-11-16T09:12:36.576Z,1.04
2022-11-16T09:13:36.708Z,1.04
2022-11-16T09:14:37.017Z,4
2022-11-16T09:15:36.590Z,1.04
2022-11-16T09:16:37.116Z,1.84
2022-11-16T09:17:37.217Z,2.64
2022-11-16T09:18:37.624Z,1.6
2022-11-16T09:19:37.557Z,1.44
2022-11-16T09:20:37.706Z,1.04
2022-11-16T09:21:37.878Z,1.04
2022-11-16T09:22:38.009Z,1.2
2022-11-16T09:23:38.204Z,1.6
2022-11-16T09:24:38.340Z,1.44
2022-11-16T09:25:38.532Z,1.04
2022-11-16T09:26:38.688Z,1.04
2022-11-16T09:27:38.790Z,1.44
2022-11-16T09:28:38.988Z,1.44
2022-11-16T09:29:39.287Z,0.8
2022-11-16T09:30:38.790Z,1.44
2022-11-16T09:31:39.340Z,0
2022-11-16T09:32:39.439Z,1.2
2022-11-16T09:33:39.641Z,1.44
2022-11-16T09:34:39.726Z,0
2022-11-16T09:35:39.847Z,1.04
2022-11-16T09:36:40.028Z,1.44
2022-11-16T09:37:40.182Z,0
2022-11-16T09:39:03.524Z,0.8
2022-11-16T09:39:40.907Z,0.8
2022-11-16T09:40:40.615Z,0.8
2022-11-16T09:41:41.019Z,3.44
2022-11-16T09:42:40.949Z,1.2
2022-11-16T09:43:45.442Z,1.04
2022-11-16T09:44:41.710Z,2.8
2022-11-16T09:45:40.989Z,0
2022-11-16T09:46:41.117Z,1.44
2022-11-16T09:47:41.565Z,1.6
2022-11-16T09:48:41.742Z,0.8
2022-11-16T09:49:41.854Z,0.8
2022-11-16T09:50:41.989Z,0.8
2022-11-16T09:51:42.237Z,2
2022-11-16T09:52:42.272Z,1.04
2022-11-16T09:53:42.408Z,1.04
2022-11-16T09:54:42.578Z,1.44
2022-11-16T09:55:42.728Z,0
2022-11-16T09:56:42.882Z,1.44
2022-11-16T09:57:43.033Z,1.6
2022-11-16T09:58:43.230Z,1.04
2022-11-16T09:59:43.733Z,1.04
2022-11-16T10:00:43.239Z,2.8
2022-11-16T10:01:43.604Z,0.8
2022-11-16T10:02:43.784Z,1.6
2022-11-16T10:03:43.888Z,1.04
2022-11-16T10:04:43.991Z,1.2
2022-11-16T10:05:44.093Z,2.24
2022-11-16T10:06:44.223Z,1.2
2022-11-16T10:07:44.299Z,3.04
2022-11-16T10:08:44.496Z,1.04
2022-11-16T10:09:44.648Z,1.2
2022-11-16T10:10:44.802Z,0
2022-11-16T10:11:45.153Z,0.8
2022-11-16T10:12:45.090Z,2.24
2022-11-16T10:13:45.295Z,2.64
2022-11-16T10:14:45.613Z,1.04
2022-11-16T10:15:45.133Z,1.6
2022-11-16T10:16:45.196Z,3.44
2022-11-16T10:17:45.421Z,0
2022-11-16T10:18:45.864Z,1.6
2022-11-16T10:19:45.981Z,0
2022-11-16T10:20:46.219Z,0
2022-11-16T10:21:46.372Z,1.04
2022-11-16T10:22:46.448Z,0
2022-11-16T10:23:46.574Z,1.04
2022-11-16T10:24:46.727Z,1.6
2022-11-16T10:25:46.925Z,1.2
2022-11-16T10:26:46.966Z,2.64
2022-11-16T10:27:47.140Z,0
2022-11-16T10:28:47.284Z,1.04
2022-11-16T10:29:47.735Z,1.6
2022-11-16T10:30:47.206Z,0
2022-11-16T10:31:47.853Z,0.8
2022-11-16T10:32:47.892Z,1.44
2022-11-16T10:33:48.095Z,1.84
2022-11-16T10:34:48.253Z,0
2022-11-16T10:35:48.399Z,1.6
2022-11-16T10:36:48.623Z,1.04
2022-11-16T10:37:48.743Z,0.8
2022-11-16T10:38:48.855Z,0
2022-11-16T10:39:48.917Z,1.84
2022-11-16T10:40:49.010Z,0
2022-11-16T10:41:49.218Z,2
2022-11-16T10:42:49.260Z,1.04
2022-11-16T10:43:49.457Z,0.8
2022-11-16T10:44:49.749Z,0
2022-11-16T10:45:49.379Z,0.8
2022-11-16T10:46:49.904Z,0
2022-11-16T10:47:50.065Z,0
2022-11-16T10:48:50.200Z,0
2022-11-16T10:49:50.421Z,0
2022-11-16T10:50:50.571Z,2
2022-11-16T10:51:50.365Z,0
2022-11-16T10:52:51.068Z,0
2022-11-16T10:53:51.067Z,0
2022-11-16T10:54:51.173Z,0
2022-11-16T10:55:51.322Z,0
2022-11-16T10:56:51.424Z,0
2022-11-16T10:57:51.554Z,0
2022-11-16T10:58:51.707Z,0
2022-11-16T10:59:51.989Z,0
2022-11-16T11:00:51.804Z,0
2022-11-16T11:01:51.766Z,0
2022-11-16T11:02:52.340Z,0
2022-11-16T11:03:52.418Z,0
2022-11-16T11:04:52.556Z,0
2022-11-16T11:05:52.794Z,0
2022-11-16T11:06:53.003Z,0
2022-11-16T11:07:56.888Z,0
2022-11-16T11:08:53.155Z,0
2022-11-16T11:09:53.352Z,0
2022-11-16T11:10:53.531Z,0
2022-11-16T11:11:53.636Z,0
2022-11-16T11:12:53.802Z,0
2022-11-16T11:13:53.830Z,0
2022-11-16T11:14:54.143Z,0
2022-11-16T11:15:53.735Z,0
2022-11-16T11:16:53.885Z,0
2022-11-16T11:17:54.367Z,0
2022-11-16T11:18:54.511Z,0
2022-11-16T11:19:54.664Z,0
2022-11-16T11:20:54.813Z,0
2022-11-16T11:21:54.930Z,0
2022-11-16T11:22:55.185Z,0
2022-11-16T11:23:55.371Z,0
2022-11-16T11:24:55.421Z,0
2022-11-16T11:25:55.583Z,0
2022-11-16T11:26:55.772Z,0
2022-11-16T11:27:55.926Z,0
2022-11-16T11:28:56.062Z,0
2022-11-16T11:29:56.377Z,0
2022-11-16T11:30:55.924Z,0
2022-11-16T11:31:56.073Z,0
2022-11-16T11:32:56.635Z,0
2022-11-16T11:33:56.723Z,0
2022-11-16T11:34:56.890Z,0
2022-11-16T11:35:57.020Z,0
2022-11-16T11:36:57.119Z,0
2022-11-16T11:37:56.869Z,0
2022-11-16T11:38:57.104Z,0
2022-11-16T11:39:57.120Z,0
2022-11-16T11:40:57.701Z,0
2022-11-16T11:41:57.800Z,0
2022-11-16T11:42:57.962Z,0
2022-11-16T11:43:58.083Z,0
2022-11-16T11:44:58.508Z,0
2022-11-16T11:45:57.963Z,0
2022-11-16T11:47:35.547Z,0
2022-11-16T11:47:59.506Z,0
2022-11-16T11:48:58.709Z,0
2022-11-16T11:49:58.908Z,0
2022-11-16T11:50:59.025Z,0
2022-11-16T11:51:59.171Z,0
2022-11-16T11:52:59.328Z,0
2022-11-16T11:53:59.401Z,1.04
2022-11-16T11:54:59.564Z,1.04
2022-11-16T11:55:59.730Z,0
2022-11-16T11:56:59.875Z,0
2022-11-16T11:57:59.686Z,0
2022-11-16T11:59:00.134Z,0
2022-11-16T12:00:00.580Z,0
2022-11-16T12:01:00.081Z,0
2022-11-16T12:02:00.628Z,0
2022-11-16T12:03:01.152Z,0
2022-11-16T12:04:00.914Z,0
2022-11-16T12:05:01.082Z,0
2022-11-16T12:06:01.140Z,0
2022-11-16T12:07:01.382Z,0
2022-11-16T12:08:01.471Z,0
2022-11-16T12:09:01.599Z,0
2022-11-16T12:10:01.747Z,0
2022-11-16T12:11:01.847Z,0
2022-11-16T12:12:01.982Z,0
2022-11-16T12:13:02.149Z,0
2022-11-16T12:14:02.254Z,0
2022-11-16T12:15:02.904Z,0
2022-11-16T12:16:02.218Z,0
2022-11-16T12:17:02.803Z,0
2022-11-16T12:18:02.705Z,0
2022-11-16T12:19:02.918Z,0
2022-11-16T12:20:03.165Z,0
2022-11-16T12:21:03.268Z,0
2022-11-16T12:22:03.356Z,0
2022-11-16T12:23:04.274Z,0
2022-11-16T12:24:03.200Z,0
2022-11-16T12:25:03.717Z,0
2022-11-16T12:26:03.835Z,1.04
2022-11-16T12:27:04.019Z,0
2022-11-16T12:28:04.156Z,0
2022-11-16T12:29:04.308Z,0
2022-11-16T12:30:04.734Z,0
2022-11-16T12:31:04.246Z,0.8
2022-11-16T12:32:04.969Z,0
2022-11-16T12:33:04.983Z,0
2022-11-16T12:34:05.010Z,0
2022-11-16T12:35:05.191Z,0
2022-11-16T12:36:05.345Z,0
2022-11-16T12:37:05.546Z,0
2022-11-16T12:38:05.704Z,0
2022-11-16T12:39:05.783Z,0
2022-11-16T12:40:05.899Z,0
2022-11-16T12:41:06.027Z,0.8
2022-11-16T12:42:06.177Z,0.8
2022-11-16T12:43:06.391Z,0
2022-11-16T12:44:06.450Z,0.64
2022-11-16T12:45:06.852Z,0
2022-11-16T12:46:06.432Z,0
2022-11-16T12:47:06.958Z,0
2022-11-16T12:48:07.105Z,0
2022-11-16T12:49:07.224Z,0
2022-11-16T12:50:07.320Z,0
2022-11-16T12:51:07.457Z,0
2022-11-16T12:52:07.595Z,0
2022-11-16T12:53:07.765Z,0
2022-11-16T12:54:07.919Z,0
2022-11-16T12:55:26.625Z,0.8
2022-11-16T12:56:08.297Z,0
2022-11-16T12:57:08.365Z,0
2022-11-16T12:58:08.972Z,0
2022-11-16T12:59:08.680Z,0
2022-11-16T13:00:09.055Z,1.2
2022-11-16T13:01:08.614Z,0
2022-11-16T13:02:09.080Z,0
2022-11-16T13:03:09.246Z,0
2022-11-16T13:04:09.332Z,0
2022-11-16T13:05:09.830Z,0
2022-11-16T13:06:09.629Z,0
2022-11-16T13:07:11.296Z,0
2022-11-16T13:08:09.868Z,0
2022-11-16T13:09:09.997Z,0
2022-11-16T13:10:10.235Z,0
2022-11-16T13:11:10.390Z,0
2022-11-16T13:12:10.589Z,0
2022-11-16T13:13:36.611Z,0
2022-11-16T13:14:10.768Z,0
2022-11-16T13:15:11.054Z,0
2022-11-16T13:16:10.723Z,0
2022-11-16T13:17:11.207Z,0
2022-11-16T13:18:11.312Z,0
2022-11-16T13:19:11.398Z,0
2022-11-16T13:20:14.481Z,0
2022-11-16T13:21:11.789Z,0
2022-11-16T13:22:11.963Z,0
2022-11-16T13:23:12.162Z,0
2022-11-16T13:24:12.218Z,0
2022-11-16T13:25:12.339Z,0
2022-11-16T13:26:12.527Z,0
2022-11-16T13:27:12.713Z,0
2022-11-16T13:28:12.911Z,0
2022-11-16T13:29:13.015Z,0
2022-11-16T13:30:13.324Z,0
2022-11-16T13:31:12.891Z,0
2022-11-16T13:32:13.406Z,0
2022-11-16T13:33:13.621Z,0
2022-11-16T13:34:13.721Z,0
2022-11-16T13:35:13.873Z,0
2022-11-16T13:36:14.025Z,0
2022-11-16T13:37:14.363Z,0
2022-11-16T13:38:14.311Z,0
2022-11-16T13:39:20.544Z,0
2022-11-16T13:40:14.937Z,0
2022-11-16T13:41:15.083Z,0
2022-11-16T13:42:14.786Z,0
2022-11-16T13:43:15.289Z,0
2022-11-16T13:44:15.289Z,0
2022-11-16T13:45:15.493Z,0
2022-11-16T13:46:40.726Z,0
2022-11-16T13:47:15.495Z,0
2022-11-16T13:48:15.645Z,0
2022-11-16T13:49:15.761Z,0
2022-11-16T13:50:15.927Z,0
2022-11-16T13:51:16.049Z,0
2022-11-16T13:52:23.476Z,0
2022-11-16T13:54:44.364Z,0
2022-11-16T13:55:16.606Z,0
2022-11-16T13:56:16.986Z,0
2022-11-16T13:57:16.868Z,0
2022-11-16T13:58:17.048Z,0
2022-11-16T13:59:17.111Z,0
2022-11-16T14:00:17.563Z,0
2022-11-16T14:01:17.254Z,0
2022-11-16T14:02:17.246Z,0
2022-11-16T14:03:17.856Z,0
2022-11-16T14:04:17.929Z,0
2022-11-16T14:05:18.058Z,0
2022-11-16T14:06:18.229Z,0
2022-11-16T14:07:18.369Z,0
2022-11-16T14:08:18.432Z,0
2022-11-16T14:09:18.577Z,0
2022-11-16T14:10:18.397Z,0
2022-11-16T14:11:18.834Z,0
2022-11-16T14:12:19.012Z,0